sensor_id;sensor_type;location;lat;lon;timestamp;pressure;altitude;pressure_sealevel;temperature;humidity
35716;BME280;21840;44.920;8.616;2023-05-21T00:01:23;100147.97;;;21.13;54.56
35716;BME280;21840;44.920;8.616;2023-05-21T00:03:49;100149.84;;;21.06;54.54
35716;BME280;21840;44.920;8.616;2023-05-21T00:06:16;100143.69;;;21.12;54.44
35716;BME280;21840;44.920;8.616;2023-05-21T00:08:41;100149.41;;;21.22;54.36
35716;BME280;21840;44.920;8.616;2023-05-21T00:11:07;100156.59;;;21.22;54.37
35716;BME280;21840;44.920;8.616;2023-05-21T00:13:32;100155.78;;;21.15;54.53
35716;BME280;21840;44.920;8.616;2023-05-21T00:15:58;100148.81;;;21.07;54.58
35716;BME280;21840;44.920;8.616;2023-05-21T00:18:23;100154.34;;;21.05;54.64
35716;BME280;21840;44.920;8.616;2023-05-21T00:20:49;100154.16;;;21.00;54.48
35716;BME280;21840;44.920;8.616;2023-05-21T00:23:15;100144.13;;;20.82;54.87
35716;BME280;21840;44.920;8.616;2023-05-21T00:25:42;100152.78;;;20.64;54.94
35716;BME280;21840;44.920;8.616;2023-05-21T00:28:08;100152.16;;;20.56;55.17
35716;BME280;21840;44.920;8.616;2023-05-21T00:30:33;100137.78;;;20.70;54.78
35716;BME280;21840;44.920;8.616;2023-05-21T00:32:58;100138.19;;;20.74;54.60
35716;BME280;21840;44.920;8.616;2023-05-21T00:35:29;100137.53;;;20.92;53.86
35716;BME280;21840;44.920;8.616;2023-05-21T00:37:54;100141.25;;;20.90;53.67
35716;BME280;21840;44.920;8.616;2023-05-21T00:40:20;100143.94;;;20.77;53.74
35716;BME280;21840;44.920;8.616;2023-05-21T00:42:45;100144.78;;;20.64;53.61
35716;BME280;21840;44.920;8.616;2023-05-21T00:45:12;100139.00;;;20.61;53.72
35716;BME280;21840;44.920;8.616;2023-05-21T00:47:38;100135.72;;;20.45;53.80
35716;BME280;21840;44.920;8.616;2023-05-21T00:50:05;100134.25;;;20.36;53.84
35716;BME280;21840;44.920;8.616;2023-05-21T00:52:32;100139.63;;;20.70;53.23
35716;BME280;21840;44.920;8.616;2023-05-21T00:55:05;100143.53;;;20.67;52.92
35716;BME280;21840;44.920;8.616;2023-05-21T00:57:31;100143.50;;;20.47;53.19
35716;BME280;21840;44.920;8.616;2023-05-21T00:59:57;100144.16;;;20.56;53.06
35716;BME280;21840;44.920;8.616;2023-05-21T01:02:22;100151.53;;;20.60;53.08
35716;BME280;21840;44.920;8.616;2023-05-21T01:04:48;100148.69;;;20.62;53.00
35716;BME280;21840;44.920;8.616;2023-05-21T01:07:13;100157.28;;;20.64;52.85
35716;BME280;21840;44.920;8.616;2023-05-21T01:09:39;100156.47;;;20.57;52.94
35716;BME280;21840;44.920;8.616;2023-05-21T01:12:05;100151.97;;;20.57;52.92
35716;BME280;21840;44.920;8.616;2023-05-21T01:14:31;100151.13;;;20.70;52.54
35716;BME280;21840;44.920;8.616;2023-05-21T01:16:58;100151.75;;;20.72;52.30
35716;BME280;21840;44.920;8.616;2023-05-21T01:19:26;100152.75;;;20.84;52.26
35716;BME280;21840;44.920;8.616;2023-05-21T01:21:52;100151.53;;;20.67;52.31
35716;BME280;21840;44.920;8.616;2023-05-21T01:24:20;100153.34;;;20.86;52.04
35716;BME280;21840;44.920;8.616;2023-05-21T01:26:46;100142.91;;;20.58;52.61
35716;BME280;21840;44.920;8.616;2023-05-21T01:29:11;100143.94;;;20.77;52.20
35716;BME280;21840;44.920;8.616;2023-05-21T01:34:22;100145.56;;;20.78;51.88
35716;BME280;21840;44.920;8.616;2023-05-21T01:36:48;100147.41;;;20.44;52.51
35716;BME280;21840;44.920;8.616;2023-05-21T01:39:26;100141.63;;;20.54;52.44
35716;BME280;21840;44.920;8.616;2023-05-21T01:41:53;100140.22;;;20.85;51.88
35716;BME280;21840;44.920;8.616;2023-05-21T01:44:21;100138.38;;;20.79;51.69
35716;BME280;21840;44.920;8.616;2023-05-21T01:46:47;100141.25;;;20.51;52.32
35716;BME280;21840;44.920;8.616;2023-05-21T01:49:13;100129.75;;;20.43;52.11
35716;BME280;21840;44.920;8.616;2023-05-21T01:51:39;100127.91;;;20.37;52.22
35716;BME280;21840;44.920;8.616;2023-05-21T01:54:06;100130.97;;;20.41;52.17
35716;BME280;21840;44.920;8.616;2023-05-21T01:56:31;100140.81;;;20.54;52.16
35716;BME280;21840;44.920;8.616;2023-05-21T01:58:58;100137.13;;;20.48;51.94
35716;BME280;21840;44.920;8.616;2023-05-21T02:01:24;100139.22;;;20.66;51.57
35716;BME280;21840;44.920;8.616;2023-05-21T02:03:50;100131.44;;;20.58;51.44
35716;BME280;21840;44.920;8.616;2023-05-21T02:06:15;100130.78;;;20.82;50.96
35716;BME280;21840;44.920;8.616;2023-05-21T02:08:40;100135.72;;;20.79;51.00
35716;BME280;21840;44.920;8.616;2023-05-21T02:11:06;100138.81;;;20.82;50.73
35716;BME280;21840;44.920;8.616;2023-05-21T02:13:31;100138.16;;;20.94;50.47
35716;BME280;21840;44.920;8.616;2023-05-21T02:15:56;100139.59;;;20.96;50.52
35716;BME280;21840;44.920;8.616;2023-05-21T02:18:22;100134.91;;;20.65;50.75
35716;BME280;21840;44.920;8.616;2023-05-21T02:20:47;100119.47;;;20.54;51.25
35716;BME280;21840;44.920;8.616;2023-05-21T02:23:13;100120.94;;;20.63;50.98
35716;BME280;21840;44.920;8.616;2023-05-21T02:25:38;100122.59;;;20.77;50.74
35716;BME280;21840;44.920;8.616;2023-05-21T02:28:04;100118.88;;;20.38;51.63
35716;BME280;21840;44.920;8.616;2023-05-21T02:30:29;100113.78;;;20.57;51.09
35716;BME280;21840;44.920;8.616;2023-05-21T02:32:54;100114.16;;;20.54;51.30
35716;BME280;21840;44.920;8.616;2023-05-21T02:35:23;100120.34;;;20.61;51.14
35716;BME280;21840;44.920;8.616;2023-05-21T02:37:48;100112.94;;;20.50;51.19
35716;BME280;21840;44.920;8.616;2023-05-21T02:40:14;100108.00;;;20.13;52.02
35716;BME280;21840;44.920;8.616;2023-05-21T02:42:40;100103.50;;;20.47;51.55
35716;BME280;21840;44.920;8.616;2023-05-21T02:45:07;100106.16;;;20.34;51.65
35716;BME280;21840;44.920;8.616;2023-05-21T02:47:32;100103.91;;;20.51;51.30
35716;BME280;21840;44.920;8.616;2023-05-21T02:49:58;100099.56;;;20.83;50.70
35716;BME280;21840;44.920;8.616;2023-05-21T02:52:24;100105.34;;;20.53;51.06
35716;BME280;21840;44.920;8.616;2023-05-21T02:54:50;100099.81;;;20.35;51.35
35716;BME280;21840;44.920;8.616;2023-05-21T02:57:16;100096.50;;;20.53;50.98
35716;BME280;21840;44.920;8.616;2023-05-21T02:59:42;100096.72;;;20.78;50.44
35716;BME280;21840;44.920;8.616;2023-05-21T03:02:07;100090.56;;;20.71;50.58
35716;BME280;21840;44.920;8.616;2023-05-21T03:04:33;100093.22;;;20.77;50.33
35716;BME280;21840;44.920;8.616;2023-05-21T03:07:03;100103.44;;;21.00;49.77
35716;BME280;21840;44.920;8.616;2023-05-21T03:09:29;100098.72;;;20.96;49.70
35716;BME280;21840;44.920;8.616;2023-05-21T03:11:55;100104.06;;;20.89;49.95
35716;BME280;21840;44.920;8.616;2023-05-21T03:14:21;100102.22;;;20.96;49.94
35716;BME280;21840;44.920;8.616;2023-05-21T03:16:48;100110.03;;;20.91;49.73
35716;BME280;21840;44.920;8.616;2023-05-21T03:19:16;100115.75;;;21.01;49.52
35716;BME280;21840;44.920;8.616;2023-05-21T03:21:41;100108.91;;;21.25;49.11
35716;BME280;21840;44.920;8.616;2023-05-21T03:24:07;100116.94;;;21.19;49.23
35716;BME280;21840;44.920;8.616;2023-05-21T03:26:33;100106.00;;;21.33;49.00
35716;BME280;21840;44.920;8.616;2023-05-21T03:28:59;100106.00;;;21.33;48.87
35716;BME280;21840;44.920;8.616;2023-05-21T03:31:25;100103.72;;;21.37;49.00
35716;BME280;21840;44.920;8.616;2023-05-21T03:34:05;100106.81;;;21.41;48.92
35716;BME280;21840;44.920;8.616;2023-05-21T03:36:32;100106.63;;;21.29;48.89
35716;BME280;21840;44.920;8.616;2023-05-21T03:38:58;100103.75;;;21.24;49.19
35716;BME280;21840;44.920;8.616;2023-05-21T03:41:23;100112.88;;;20.96;49.66
35716;BME280;21840;44.920;8.616;2023-05-21T03:43:53;100108.00;;;20.73;50.03
35716;BME280;21840;44.920;8.616;2023-05-21T03:46:22;100118.88;;;20.72;50.07
35716;BME280;21840;44.920;8.616;2023-05-21T03:49:13;100110.88;;;20.78;50.03
35716;BME280;21840;44.920;8.616;2023-05-21T03:51:39;100116.44;;;20.63;49.93
35716;BME280;21840;44.920;8.616;2023-05-21T03:54:05;100119.09;;;20.70;49.94
35716;BME280;21840;44.920;8.616;2023-05-21T03:56:32;100115.19;;;20.73;49.95
35716;BME280;21840;44.920;8.616;2023-05-21T03:58:58;100119.31;;;20.62;49.96
35716;BME280;21840;44.920;8.616;2023-05-21T04:01:23;100123.22;;;20.59;50.15
35716;BME280;21840;44.920;8.616;2023-05-21T04:03:51;100131.81;;;20.68;49.80
35716;BME280;21840;44.920;8.616;2023-05-21T04:06:16;100135.13;;;20.77;49.55
35716;BME280;21840;44.920;8.616;2023-05-21T04:08:43;100135.50;;;20.40;50.39
35716;BME280;21840;44.920;8.616;2023-05-21T04:11:08;100139.84;;;20.68;49.83
35716;BME280;21840;44.920;8.616;2023-05-21T04:13:34;100144.34;;;20.87;49.32
35716;BME280;21840;44.920;8.616;2023-05-21T04:16:00;100135.28;;;20.88;49.24
35716;BME280;21840;44.920;8.616;2023-05-21T04:18:25;100144.06;;;21.16;48.74
35716;BME280;21840;44.920;8.616;2023-05-21T04:20:51;100147.34;;;21.11;48.77
35716;BME280;21840;44.920;8.616;2023-05-21T04:23:16;100145.09;;;21.08;48.77
35716;BME280;21840;44.920;8.616;2023-05-21T04:25:42;100145.25;;;21.26;48.46
35716;BME280;21840;44.920;8.616;2023-05-21T04:28:07;100145.69;;;21.23;48.42
35716;BME280;21840;44.920;8.616;2023-05-21T04:30:33;100154.53;;;21.17;48.57
35716;BME280;21840;44.920;8.616;2023-05-21T04:33:02;100150.84;;;21.18;48.45
35716;BME280;21840;44.920;8.616;2023-05-21T04:35:28;100155.78;;;21.08;48.60
35716;BME280;21840;44.920;8.616;2023-05-21T04:37:53;100156.16;;;21.25;48.38
35716;BME280;21840;44.920;8.616;2023-05-21T04:40:19;100153.50;;;21.11;48.64
35716;BME280;21840;44.920;8.616;2023-05-21T04:42:48;100152.50;;;21.19;48.67
35716;BME280;21840;44.920;8.616;2023-05-21T04:45:15;100157.59;;;21.27;48.47
35716;BME280;21840;44.920;8.616;2023-05-21T04:47:43;100148.34;;;21.23;48.50
35716;BME280;21840;44.920;8.616;2023-05-21T04:50:09;100150.78;;;21.31;48.33
35716;BME280;21840;44.920;8.616;2023-05-21T04:52:35;100149.34;;;21.29;48.44
35716;BME280;21840;44.920;8.616;2023-05-21T04:55:01;100148.72;;;21.33;48.29
35716;BME280;21840;44.920;8.616;2023-05-21T04:57:27;100146.69;;;21.42;48.16
35716;BME280;21840;44.920;8.616;2023-05-21T04:59:53;100148.69;;;21.53;48.02
35716;BME280;21840;44.920;8.616;2023-05-21T05:02:19;100145.75;;;21.68;47.60
35716;BME280;21840;44.920;8.616;2023-05-21T05:04:44;100153.75;;;21.68;47.38
35716;BME280;21840;44.920;8.616;2023-05-21T05:07:10;100156.19;;;21.76;47.18
35716;BME280;21840;44.920;8.616;2023-05-21T05:09:36;100157.16;;;22.27;46.23
35716;BME280;21840;44.920;8.616;2023-05-21T05:12:02;100162.44;;;22.34;46.05
35716;BME280;21840;44.920;8.616;2023-05-21T05:14:27;100152.53;;;22.41;45.71
35716;BME280;21840;44.920;8.616;2023-05-21T05:16:52;100153.28;;;22.48;45.75
35716;BME280;21840;44.920;8.616;2023-05-21T05:19:18;100155.16;;;22.73;45.36
35716;BME280;21840;44.920;8.616;2023-05-21T05:21:44;100155.31;;;22.28;45.66
35716;BME280;21840;44.920;8.616;2023-05-21T05:24:10;100150.69;;;22.03;46.31
35716;BME280;21840;44.920;8.616;2023-05-21T05:26:36;100149.34;;;22.26;46.25
35716;BME280;21840;44.920;8.616;2023-05-21T05:29:01;100151.84;;;22.14;46.51
35716;BME280;21840;44.920;8.616;2023-05-21T05:31:27;100153.88;;;22.18;46.46
35716;BME280;21840;44.920;8.616;2023-05-21T05:33:52;100151.22;;;22.25;46.70
35716;BME280;21840;44.920;8.616;2023-05-21T05:36:18;100150.78;;;21.90;47.08
35716;BME280;21840;44.920;8.616;2023-05-21T05:38:44;100153.69;;;22.27;46.57
35716;BME280;21840;44.920;8.616;2023-05-21T05:41:10;100145.81;;;21.93;47.16
35716;BME280;21840;44.920;8.616;2023-05-21T05:43:35;100141.50;;;22.31;46.52
35716;BME280;21840;44.920;8.616;2023-05-21T05:46:00;100151.38;;;22.30;46.67
35716;BME280;21840;44.920;8.616;2023-05-21T05:48:26;100144.78;;;22.58;46.31
35716;BME280;21840;44.920;8.616;2023-05-21T05:50:52;100155.09;;;22.54;46.27
35716;BME280;21840;44.920;8.616;2023-05-21T05:53:23;100152.09;;;22.69;46.06
35716;BME280;21840;44.920;8.616;2023-05-21T05:55:49;100155.69;;;22.56;46.31
35716;BME280;21840;44.920;8.616;2023-05-21T05:58:14;100146.16;;;22.42;46.63
35716;BME280;21840;44.920;8.616;2023-05-21T06:00:53;100155.16;;;22.73;46.38
35716;BME280;21840;44.920;8.616;2023-05-21T06:03:18;100155.47;;;22.58;46.77
35716;BME280;21840;44.920;8.616;2023-05-21T06:05:44;100149.53;;;22.56;46.83
35716;BME280;21840;44.920;8.616;2023-05-21T06:08:09;100156.34;;;22.77;46.69
35716;BME280;21840;44.920;8.616;2023-05-21T06:10:35;100156.81;;;22.99;46.07
35716;BME280;21840;44.920;8.616;2023-05-21T06:13:02;100158.16;;;22.58;47.16
35716;BME280;21840;44.920;8.616;2023-05-21T06:15:28;100147.22;;;22.85;46.35
35716;BME280;21840;44.920;8.616;2023-05-21T06:17:54;100149.34;;;22.51;46.50
35716;BME280;21840;44.920;8.616;2023-05-21T06:20:19;100152.84;;;22.51;46.83
35716;BME280;21840;44.920;8.616;2023-05-21T06:22:45;100142.06;;;22.39;47.27
35716;BME280;21840;44.920;8.616;2023-05-21T06:25:10;100149.44;;;22.44;47.31
35716;BME280;21840;44.920;8.616;2023-05-21T06:27:36;100149.97;;;22.53;47.02
35716;BME280;21840;44.920;8.616;2023-05-21T06:30:04;100151.81;;;22.52;47.06
35716;BME280;21840;44.920;8.616;2023-05-21T06:32:30;100161.81;;;22.64;46.93
35716;BME280;21840;44.920;8.616;2023-05-21T06:34:55;100155.59;;;22.70;46.74
35716;BME280;21840;44.920;8.616;2023-05-21T06:37:21;100158.47;;;22.68;46.97
35716;BME280;21840;44.920;8.616;2023-05-21T06:39:46;100163.03;;;22.68;46.84
35716;BME280;21840;44.920;8.616;2023-05-21T06:42:11;100159.97;;;22.64;47.13
35716;BME280;21840;44.920;8.616;2023-05-21T06:44:54;100161.56;;;22.90;46.60
35716;BME280;21840;44.920;8.616;2023-05-21T06:47:34;100159.19;;;22.82;46.96
35716;BME280;21840;44.920;8.616;2023-05-21T06:50:00;100157.94;;;22.34;47.93
35716;BME280;21840;44.920;8.616;2023-05-21T06:52:25;100167.00;;;22.58;47.61
35716;BME280;21840;44.920;8.616;2023-05-21T06:54:51;100166.34;;;22.38;47.64
35716;BME280;21840;44.920;8.616;2023-05-21T06:57:18;100169.06;;;22.56;47.54
35716;BME280;21840;44.920;8.616;2023-05-21T06:59:44;100173.06;;;22.47;47.48
35716;BME280;21840;44.920;8.616;2023-05-21T07:02:09;100176.22;;;22.37;47.81
35716;BME280;21840;44.920;8.616;2023-05-21T07:04:34;100182.44;;;22.56;47.36
35716;BME280;21840;44.920;8.616;2023-05-21T07:07:01;100176.84;;;22.65;47.03
35716;BME280;21840;44.920;8.616;2023-05-21T07:09:29;100176.72;;;22.53;47.39
35716;BME280;21840;44.920;8.616;2023-05-21T07:11:55;100174.31;;;22.45;47.66
35716;BME280;21840;44.920;8.616;2023-05-21T07:14:20;100180.00;;;22.80;47.43
35716;BME280;21840;44.920;8.616;2023-05-21T07:16:46;100180.31;;;22.90;47.28
35716;BME280;21840;44.920;8.616;2023-05-21T07:19:11;100186.22;;;22.74;47.50
35716;BME280;21840;44.920;8.616;2023-05-21T07:21:37;100199.97;;;22.84;47.04
35716;BME280;21840;44.920;8.616;2023-05-21T07:24:05;100194.16;;;22.87;47.04
35716;BME280;21840;44.920;8.616;2023-05-21T07:26:30;100194.50;;;22.97;47.42
35716;BME280;21840;44.920;8.616;2023-05-21T07:28:56;100196.84;;;23.12;47.12
35716;BME280;21840;44.920;8.616;2023-05-21T07:31:22;100191.78;;;23.41;46.35
35716;BME280;21840;44.920;8.616;2023-05-21T07:33:50;100199.97;;;23.64;46.13
35716;BME280;21840;44.920;8.616;2023-05-21T07:36:17;100199.47;;;23.74;45.64
35716;BME280;21840;44.920;8.616;2023-05-21T07:38:43;100197.63;;;24.05;45.35
35716;BME280;21840;44.920;8.616;2023-05-21T07:41:09;100198.69;;;24.04;45.20
35716;BME280;21840;44.920;8.616;2023-05-21T07:43:35;100208.69;;;24.39;44.37
35716;BME280;21840;44.920;8.616;2023-05-21T07:46:00;100195.66;;;24.12;45.23
35716;BME280;21840;44.920;8.616;2023-05-21T07:48:26;100200.00;;;24.55;44.28
35716;BME280;21840;44.920;8.616;2023-05-21T07:50:56;100199.47;;;24.35;44.20
35716;BME280;21840;44.920;8.616;2023-05-21T07:53:23;100197.81;;;23.73;45.43
35716;BME280;21840;44.920;8.616;2023-05-21T07:55:48;100205.16;;;24.26;44.52
35716;BME280;21840;44.920;8.616;2023-05-21T07:58:17;100196.53;;;24.36;44.52
35716;BME280;21840;44.920;8.616;2023-05-21T08:00:45;100205.03;;;24.51;44.42
35716;BME280;21840;44.920;8.616;2023-05-21T08:03:14;100205.25;;;24.50;44.33
35716;BME280;21840;44.920;8.616;2023-05-21T08:05:41;100196.41;;;24.73;44.12
35716;BME280;21840;44.920;8.616;2023-05-21T08:08:06;100195.34;;;24.86;43.88
35716;BME280;21840;44.920;8.616;2023-05-21T08:10:32;100194.44;;;24.80;43.20
35716;BME280;21840;44.920;8.616;2023-05-21T08:12:58;100195.03;;;24.94;43.09
35716;BME280;21840;44.920;8.616;2023-05-21T08:15:26;100206.34;;;24.96;43.16
35716;BME280;21840;44.920;8.616;2023-05-21T08:17:52;100204.72;;;24.95;43.18
35716;BME280;21840;44.920;8.616;2023-05-21T08:20:18;100204.00;;;24.76;43.07
35716;BME280;21840;44.920;8.616;2023-05-21T08:22:44;100201.19;;;24.83;43.40
35716;BME280;21840;44.920;8.616;2023-05-21T08:25:10;100209.59;;;24.74;43.72
35716;BME280;21840;44.920;8.616;2023-05-21T08:27:35;100214.28;;;25.03;43.33
35716;BME280;21840;44.920;8.616;2023-05-21T08:30:02;100204.47;;;24.85;43.79
35716;BME280;21840;44.920;8.616;2023-05-21T08:32:27;100211.59;;;24.91;43.32
35716;BME280;21840;44.920;8.616;2023-05-21T08:34:53;100213.00;;;25.05;43.04
35716;BME280;21840;44.920;8.616;2023-05-21T08:37:36;100210.66;;;24.85;43.55
35716;BME280;21840;44.920;8.616;2023-05-21T08:40:25;100219.88;;;25.13;43.24
35716;BME280;21840;44.920;8.616;2023-05-21T08:42:51;100225.97;;;25.08;42.78
35716;BME280;21840;44.920;8.616;2023-05-21T08:45:29;100216.28;;;24.95;42.99
35716;BME280;21840;44.920;8.616;2023-05-21T08:47:59;100223.63;;;25.00;42.95
35716;BME280;21840;44.920;8.616;2023-05-21T08:50:28;100221.78;;;24.89;42.76
35716;BME280;21840;44.920;8.616;2023-05-21T08:52:58;100237.31;;;24.87;43.08
35716;BME280;21840;44.920;8.616;2023-05-21T08:55:26;100237.38;;;24.68;43.39
35716;BME280;21840;44.920;8.616;2023-05-21T08:57:53;100237.00;;;24.53;43.89
35716;BME280;21840;44.920;8.616;2023-05-21T09:00:19;100237.59;;;24.55;43.95
35716;BME280;21840;44.920;8.616;2023-05-21T09:02:49;100230.59;;;24.66;43.42
35716;BME280;21840;44.920;8.616;2023-05-21T09:05:17;100233.78;;;24.74;43.49
35716;BME280;21840;44.920;8.616;2023-05-21T09:07:49;100234.81;;;24.73;43.45
35716;BME280;21840;44.920;8.616;2023-05-21T09:10:32;100241.59;;;24.76;43.59
35716;BME280;21840;44.920;8.616;2023-05-21T09:12:59;100239.94;;;24.51;43.86
35716;BME280;21840;44.920;8.616;2023-05-21T09:15:25;100243.94;;;24.72;43.57
35716;BME280;21840;44.920;8.616;2023-05-21T09:17:51;100251.03;;;24.79;43.70
35716;BME280;21840;44.920;8.616;2023-05-21T09:20:35;100249.88;;;24.74;43.73
35716;BME280;21840;44.920;8.616;2023-05-21T09:23:02;100249.53;;;24.83;43.47
35716;BME280;21840;44.920;8.616;2023-05-21T09:25:27;100248.84;;;24.87;43.25
35716;BME280;21840;44.920;8.616;2023-05-21T09:27:57;100246.97;;;24.88;43.17
35716;BME280;21840;44.920;8.616;2023-05-21T09:30:23;100246.16;;;24.75;43.41
35716;BME280;21840;44.920;8.616;2023-05-21T09:32:53;100239.38;;;24.73;43.59
35716;BME280;21840;44.920;8.616;2023-05-21T09:35:20;100226.84;;;24.55;43.64
35716;BME280;21840;44.920;8.616;2023-05-21T09:37:47;100229.88;;;24.28;44.03
35716;BME280;21840;44.920;8.616;2023-05-21T09:40:13;100230.25;;;24.32;44.31
35716;BME280;21840;44.920;8.616;2023-05-21T09:42:49;100231.66;;;24.35;44.11
35716;BME280;21840;44.920;8.616;2023-05-21T09:45:22;100238.06;;;24.52;44.16
35716;BME280;21840;44.920;8.616;2023-05-21T09:47:50;100239.50;;;24.90;43.96
35716;BME280;21840;44.920;8.616;2023-05-21T09:50:17;100239.75;;;24.77;43.88
35716;BME280;21840;44.920;8.616;2023-05-21T09:52:43;100247.91;;;24.93;43.46
35716;BME280;21840;44.920;8.616;2023-05-21T09:55:12;100252.59;;;24.98;43.45
35716;BME280;21840;44.920;8.616;2023-05-21T09:57:56;100254.13;;;24.94;43.80
35716;BME280;21840;44.920;8.616;2023-05-21T10:00:23;100252.31;;;24.64;44.15
35716;BME280;21840;44.920;8.616;2023-05-21T10:02:49;100250.63;;;25.05;43.45
35716;BME280;21840;44.920;8.616;2023-05-21T10:05:17;100250.03;;;25.03;43.47
35716;BME280;21840;44.920;8.616;2023-05-21T10:07:44;100245.63;;;25.21;43.36
35716;BME280;21840;44.920;8.616;2023-05-21T10:10:12;100239.66;;;25.42;43.24
35716;BME280;21840;44.920;8.616;2023-05-21T10:12:39;100237.91;;;26.00;42.89
35716;BME280;21840;44.920;8.616;2023-05-21T10:15:07;100241.88;;;26.55;41.75
35716;BME280;21840;44.920;8.616;2023-05-21T10:17:33;100239.44;;;26.87;40.77
35716;BME280;21840;44.920;8.616;2023-05-21T10:19:58;100237.91;;;27.47;40.21
35716;BME280;21840;44.920;8.616;2023-05-21T10:22:25;100234.38;;;28.12;39.72
35716;BME280;21840;44.920;8.616;2023-05-21T10:24:51;100228.97;;;27.63;38.75
35716;BME280;21840;44.920;8.616;2023-05-21T10:27:19;100240.06;;;27.89;39.01
35716;BME280;21840;44.920;8.616;2023-05-21T10:29:46;100239.31;;;28.21;37.71
35716;BME280;21840;44.920;8.616;2023-05-21T10:32:13;100248.53;;;27.98;38.20
35716;BME280;21840;44.920;8.616;2023-05-21T10:34:39;100239.06;;;27.95;37.76
35716;BME280;21840;44.920;8.616;2023-05-21T10:37:06;100233.16;;;27.76;38.58
35716;BME280;21840;44.920;8.616;2023-05-21T10:39:32;100225.47;;;28.12;37.60
35716;BME280;21840;44.920;8.616;2023-05-21T10:44:33;100226.84;;;28.14;37.83
35716;BME280;21840;44.920;8.616;2023-05-21T10:50:13;100223.34;;;28.41;37.48
35716;BME280;21840;44.920;8.616;2023-05-21T10:53:09;100221.47;;;28.74;37.19
35716;BME280;21840;44.920;8.616;2023-05-21T10:58:20;100215.72;;;27.84;38.04
35716;BME280;21840;44.920;8.616;2023-05-21T11:00:52;100218.84;;;28.52;37.41
35716;BME280;21840;44.920;8.616;2023-05-21T11:03:19;100213.25;;;28.58;37.08
35716;BME280;21840;44.920;8.616;2023-05-21T11:05:51;100212.34;;;28.85;37.32
35716;BME280;21840;44.920;8.616;2023-05-21T11:08:25;100214.41;;;28.73;36.74
35716;BME280;21840;44.920;8.616;2023-05-21T11:10:54;100213.47;;;28.89;36.81
35716;BME280;21840;44.920;8.616;2023-05-21T11:13:22;100205.56;;;28.82;36.86
35716;BME280;21840;44.920;8.616;2023-05-21T11:19:15;100213.72;;;29.30;36.10
35716;BME280;21840;44.920;8.616;2023-05-21T11:23:52;100205.09;;;28.91;37.24
35716;BME280;21840;44.920;8.616;2023-05-21T11:26:18;100199.41;;;29.35;36.85
35716;BME280;21840;44.920;8.616;2023-05-21T11:28:43;100197.50;;;28.88;37.33
35716;BME280;21840;44.920;8.616;2023-05-21T11:31:24;100196.09;;;29.17;37.16
35716;BME280;21840;44.920;8.616;2023-05-21T11:36:35;100189.38;;;29.30;37.11
35716;BME280;21840;44.920;8.616;2023-05-21T11:41:56;100186.16;;;28.86;37.39
35716;BME280;21840;44.920;8.616;2023-05-21T11:44:41;100182.34;;;29.24;37.32
35716;BME280;21840;44.920;8.616;2023-05-21T11:47:10;100177.81;;;28.97;36.21
35716;BME280;21840;44.920;8.616;2023-05-21T11:49:35;100182.88;;;29.21;36.22
35716;BME280;21840;44.920;8.616;2023-05-21T11:52:05;100172.13;;;29.41;36.07
35716;BME280;21840;44.920;8.616;2023-05-21T11:54:31;100171.84;;;29.43;36.53
35716;BME280;21840;44.920;8.616;2023-05-21T11:57:01;100170.00;;;29.49;35.61
35716;BME280;21840;44.920;8.616;2023-05-21T11:59:26;100174.81;;;29.31;35.93
35716;BME280;21840;44.920;8.616;2023-05-21T12:01:51;100169.06;;;29.91;36.19
35716;BME280;21840;44.920;8.616;2023-05-21T12:04:17;100160.75;;;29.34;35.97
35716;BME280;21840;44.920;8.616;2023-05-21T12:06:42;100167.75;;;29.30;36.29
35716;BME280;21840;44.920;8.616;2023-05-21T12:09:10;100165.66;;;29.48;35.87
35716;BME280;21840;44.920;8.616;2023-05-21T12:11:42;100163.09;;;29.78;34.92
35716;BME280;21840;44.920;8.616;2023-05-21T12:14:08;100166.09;;;30.07;35.31
35716;BME280;21840;44.920;8.616;2023-05-21T12:16:34;100163.69;;;30.16;34.51
35716;BME280;21840;44.920;8.616;2023-05-21T12:18:59;100167.44;;;30.20;35.01
35716;BME280;21840;44.920;8.616;2023-05-21T12:21:26;100161.78;;;30.58;34.44
35716;BME280;21840;44.920;8.616;2023-05-21T12:23:52;100166.94;;;30.69;34.14
35716;BME280;21840;44.920;8.616;2023-05-21T12:26:18;100170.19;;;30.87;33.86
35716;BME280;21840;44.920;8.616;2023-05-21T12:28:43;100167.50;;;30.61;34.42
35716;BME280;21840;44.920;8.616;2023-05-21T12:31:13;100161.00;;;30.47;34.07
35716;BME280;21840;44.920;8.616;2023-05-21T12:33:38;100158.22;;;31.03;33.61
35716;BME280;21840;44.920;8.616;2023-05-21T12:36:04;100171.00;;;30.16;34.03
35716;BME280;21840;44.920;8.616;2023-05-21T12:38:29;100174.00;;;30.45;34.03
35716;BME280;21840;44.920;8.616;2023-05-21T12:41:02;100174.53;;;30.42;33.97
35716;BME280;21840;44.920;8.616;2023-05-21T12:43:30;100175.88;;;30.60;34.63
35716;BME280;21840;44.920;8.616;2023-05-21T12:45:55;100169.94;;;30.32;34.61
35716;BME280;21840;44.920;8.616;2023-05-21T12:48:20;100163.16;;;30.86;34.10
35716;BME280;21840;44.920;8.616;2023-05-21T12:50:46;100163.59;;;31.13;33.69
35716;BME280;21840;44.920;8.616;2023-05-21T12:53:14;100160.31;;;31.22;33.83
35716;BME280;21840;44.920;8.616;2023-05-21T12:55:39;100167.88;;;31.30;33.91
35716;BME280;21840;44.920;8.616;2023-05-21T12:58:05;100180.19;;;30.97;34.09
35716;BME280;21840;44.920;8.616;2023-05-21T13:00:32;100157.84;;;31.30;33.70
35716;BME280;21840;44.920;8.616;2023-05-21T13:02:58;100175.06;;;30.69;35.20
35716;BME280;21840;44.920;8.616;2023-05-21T13:05:26;100168.84;;;30.69;34.44
35716;BME280;21840;44.920;8.616;2023-05-21T13:07:51;100162.09;;;30.51;34.80
35716;BME280;21840;44.920;8.616;2023-05-21T13:10:17;100158.53;;;30.40;35.02
35716;BME280;21840;44.920;8.616;2023-05-21T13:12:43;100161.00;;;30.37;34.17